createdAt,value
2019-05-01T00:01:08.059Z,116.22
2019-05-01T00:03:47.587Z,110.80
2019-05-01T00:06:23.992Z,119.08
2019-05-01T00:09:01.335Z,118.17
2019-05-01T00:11:44.177Z,115.65
2019-05-01T00:14:19.473Z,120.87
2019-05-01T00:16:54.939Z,104.67
2019-05-01T00:19:31.728Z,99.80
2019-05-01T00:22:08.093Z,107.17
2019-05-01T00:24:44.765Z,105.17
2019-05-01T00:27:21.819Z,108.05
2019-05-01T00:30:01.578Z,108.37
2019-05-01T00:32:41.347Z,103.80
2019-05-01T00:35:17.014Z,101.65
2019-05-01T00:37:55.064Z,101.80
2019-05-01T00:40:31.056Z,108.22
2019-05-01T00:43:08.242Z,111.52
2019-05-01T00:45:45.935Z,113.08
2019-05-01T00:48:25.661Z,106.10
2019-05-01T00:51:01.032Z,104.17
2019-05-01T00:53:42.149Z,115.47
2019-05-01T00:56:35.290Z,114.40
2019-05-01T00:59:13.766Z,134.93
2019-05-01T01:02:10.340Z,112.68
2019-05-01T01:04:45.763Z,112.50
2019-05-01T01:07:23.700Z,104.43
2019-05-01T01:12:33.480Z,108.20
2019-05-01T01:15:09.136Z,106.58
2019-05-01T01:17:44.720Z,112.85
2019-05-01T01:20:20.952Z,111.32
2019-05-01T01:22:56.131Z,110.42
2019-05-01T01:25:33.230Z,111.00
2019-05-01T01:30:55.645Z,110.28
2019-05-01T01:33:26.118Z,118.05
2019-05-01T01:36:05.853Z,107.40
2019-05-01T01:38:42.705Z,108.42
2019-05-01T01:41:19.171Z,106.65
2019-05-01T01:44:04.670Z,113.28
2019-05-01T01:46:41.949Z,116.15
2019-05-01T01:49:17.809Z,117.67
2019-05-01T01:51:56.223Z,126.10
2019-05-01T01:54:31.012Z,136.97
2019-05-01T01:57:08.883Z,143.50
2019-05-01T01:59:46.775Z,135.60
2019-05-01T02:02:22.849Z,160.57
2019-05-01T02:05:11.403Z,131.82
2019-05-01T02:07:48.006Z,133.97
2019-05-01T02:10:23.810Z,128.53
2019-05-01T02:13:00.816Z,121.02
2019-05-01T02:18:16.716Z,126.95
2019-05-01T02:20:56.345Z,116.80
2019-05-01T02:23:34.370Z,123.50
2019-05-01T02:26:12.690Z,125.80
2019-05-01T02:28:53.606Z,133.18
2019-05-01T02:31:31.611Z,124.72
2019-05-01T02:34:10.551Z,122.58
2019-05-01T02:36:47.054Z,121.90
2019-05-01T02:39:22.795Z,118.72
2019-05-01T02:42:00.070Z,120.92
2019-05-01T02:44:39.103Z,121.97
2019-05-01T02:47:14.680Z,123.22
2019-05-01T02:49:58.127Z,123.75
2019-05-01T02:52:35.136Z,121.77
2019-05-01T02:55:14.463Z,123.07
2019-05-01T02:57:51.374Z,120.57
2019-05-01T03:00:28.292Z,119.70
2019-05-01T03:03:07.436Z,122.75
2019-05-01T03:05:44.598Z,122.40
2019-05-01T03:08:22.035Z,121.33
2019-05-01T03:10:57.425Z,117.67
2019-05-01T03:13:34.833Z,116.30
2019-05-01T03:16:11.383Z,188.72
2019-05-01T03:18:51.822Z,136.85
2019-05-01T03:21:29.084Z,126.72
2019-05-01T03:24:20.778Z,124.65
2019-05-01T03:26:56.043Z,137.80
2019-05-01T03:29:33.005Z,117.22
2019-05-01T03:34:51.553Z,124.42
2019-05-01T03:37:22.780Z,119.60
2019-05-01T03:39:58.201Z,120.55
2019-05-01T03:42:33.456Z,118.45
2019-05-01T03:45:09.899Z,122.22
2019-05-01T03:47:45.121Z,121.82
2019-05-01T03:50:27.771Z,119.80
2019-05-01T03:53:07.137Z,120.90
2019-05-01T03:55:44.957Z,113.28
2019-05-01T03:58:23.857Z,115.37
2019-05-01T04:01:00.143Z,124.18
2019-05-01T04:03:42.861Z,121.47
2019-05-01T04:06:19.042Z,126.58
2019-05-01T04:08:54.769Z,119.65
2019-05-01T04:11:34.707Z,113.92
2019-05-01T04:14:10.393Z,114.82
2019-05-01T04:16:49.358Z,120.70
2019-05-01T04:19:27.414Z,113.72
2019-05-01T04:22:07.846Z,111.47
2019-05-01T04:24:43.122Z,112.20
2019-05-01T04:27:22.146Z,133.03
2019-05-01T04:30:00.214Z,152.02
2019-05-01T04:32:50.958Z,138.55
2019-05-01T04:35:22.369Z,119.55
2019-05-01T04:37:57.680Z,110.45
2019-05-01T04:40:35.410Z,121.60
2019-05-01T04:43:11.905Z,98.42
2019-05-01T04:45:48.820Z,108.03
2019-05-01T04:50:59.801Z,99.20
2019-05-01T04:53:46.417Z,112.47
2019-05-01T04:56:27.414Z,105.37
2019-05-01T04:59:05.804Z,101.95
2019-05-01T05:01:57.311Z,108.50
2019-05-01T05:04:35.139Z,101.72
2019-05-01T05:07:13.889Z,91.75
2019-05-01T05:09:51.606Z,98.67
2019-05-01T05:12:39.216Z,104.63
2019-05-01T05:15:20.294Z,88.80
2019-05-01T05:17:58.535Z,105.27
2019-05-01T05:20:35.353Z,96.63
2019-05-01T05:23:12.068Z,87.42
2019-05-01T05:25:52.233Z,103.92
2019-05-01T05:28:31.313Z,85.32
2019-05-01T05:31:10.477Z,87.17
2019-05-01T05:33:48.008Z,81.60
2019-05-01T05:36:23.083Z,101.12
2019-05-01T05:39:02.542Z,112.30
2019-05-01T05:41:38.004Z,105.65
2019-05-01T05:44:18.169Z,86.28
2019-05-01T05:46:55.691Z,93.30
2019-05-01T05:49:49.104Z,95.03
2019-05-01T05:52:27.192Z,78.40
2019-05-01T05:55:04.909Z,81.22
2019-05-01T05:57:47.062Z,68.65
2019-05-01T06:00:23.977Z,78.90
2019-05-01T06:05:48.261Z,86.12
2019-05-01T06:08:36.445Z,70.78
2019-05-01T06:11:15.995Z,78.67
2019-05-01T06:14:04.229Z,69.95
2019-05-01T06:16:46.971Z,69.62
2019-05-01T06:19:45.901Z,66.77
2019-05-01T06:22:33.884Z,67.65
2019-05-01T06:25:22.706Z,53.42
2019-05-01T06:27:55.831Z,66.37
2019-05-01T06:33:18.902Z,72.00
2019-05-01T06:35:56.241Z,64.60
2019-05-01T06:38:37.789Z,67.87
2019-05-01T06:41:13.373Z,67.58
2019-05-01T06:43:51.800Z,77.22
2019-05-01T06:46:29.915Z,66.67
2019-05-01T06:49:29.315Z,62.23
2019-05-01T06:52:12.927Z,68.50
2019-05-01T06:55:02.932Z,70.40
2019-05-01T06:57:43.877Z,80.72
2019-05-01T07:00:19.933Z,79.85
2019-05-01T07:02:55.435Z,60.78
2019-05-01T07:05:32.665Z,64.20
2019-05-01T07:08:10.254Z,56.80
2019-05-01T07:10:46.000Z,62.55
2019-05-01T07:13:28.363Z,62.30
2019-05-01T07:16:15.739Z,62.70
2019-05-01T07:18:57.977Z,59.03
2019-05-01T07:24:32.005Z,66.67
2019-05-01T07:27:11.735Z,60.73
2019-05-01T07:29:52.581Z,56.18
2019-05-01T07:32:28.333Z,58.70
2019-05-01T07:35:08.847Z,49.08
2019-05-01T07:37:44.604Z,50.95
2019-05-01T07:40:21.189Z,58.17
2019-05-01T07:42:57.754Z,52.93
2019-05-01T07:45:39.101Z,62.20
2019-05-01T07:48:14.832Z,62.70
2019-05-01T07:50:51.790Z,59.90
2019-05-01T07:53:31.950Z,60.98
2019-05-01T07:56:07.312Z,55.98
2019-05-01T07:58:47.611Z,73.35
2019-05-01T08:01:39.837Z,65.95
2019-05-01T08:04:18.471Z,69.97
2019-05-01T08:09:30.639Z,68.97
2019-05-01T08:12:07.491Z,68.05
2019-05-01T08:14:47.802Z,78.28
2019-05-01T08:17:26.624Z,71.12
2019-05-01T08:20:20.682Z,86.57
2019-05-01T08:22:56.858Z,89.00
2019-05-01T08:25:34.557Z,101.07
2019-05-01T08:28:15.999Z,94.10
2019-05-01T08:31:02.541Z,94.95
2019-05-01T08:33:51.804Z,112.75
2019-05-01T08:36:28.673Z,108.10
2019-05-01T08:41:42.918Z,111.05
2019-05-01T08:44:18.543Z,137.55
2019-05-01T08:46:56.502Z,113.05
2019-05-01T08:49:42.238Z,121.33
2019-05-01T08:52:15.913Z,104.97
2019-05-01T08:54:54.691Z,106.78
2019-05-01T08:57:34.508Z,110.08
2019-05-01T09:00:15.731Z,110.80
2019-05-01T09:02:54.111Z,125.20
2019-05-01T09:05:33.952Z,120.82
2019-05-01T09:08:09.397Z,127.65
2019-05-01T09:10:54.771Z,124.92
2019-05-01T09:13:29.758Z,112.12
2019-05-01T09:16:05.170Z,140.28
2019-05-01T09:18:41.664Z,115.60
2019-05-01T09:21:21.181Z,109.03
2019-05-01T09:23:58.131Z,120.95
2019-05-01T09:26:50.161Z,108.75
2019-05-01T09:29:26.673Z,104.58
2019-05-01T09:32:04.993Z,105.85
2019-05-01T09:34:45.721Z,95.92
2019-05-01T09:37:21.616Z,91.82
2019-05-01T09:40:03.957Z,101.07
2019-05-01T09:42:36.643Z,107.47
2019-05-01T09:45:14.211Z,139.32
2019-05-01T09:47:54.053Z,193.43
2019-05-01T09:50:37.014Z,161.03
2019-05-01T09:53:29.708Z,141.62
2019-05-01T09:56:17.710Z,105.52
2019-05-01T09:58:53.487Z,110.95
2019-05-01T10:01:33.568Z,243.02
2019-05-01T10:04:12.318Z,469.00
2019-05-01T10:06:52.236Z,267.82
2019-05-01T10:09:32.192Z,249.22
2019-05-01T10:12:13.715Z,226.22
2019-05-01T10:14:55.331Z,260.10
2019-05-01T10:17:38.649Z,186.70
2019-05-01T10:20:19.732Z,195.68
2019-05-01T10:23:00.653Z,195.62
2019-05-01T10:25:42.934Z,120.15
2019-05-01T10:28:19.723Z,110.88
2019-05-01T10:30:59.053Z,99.52
2019-05-01T10:33:42.291Z,106.27
2019-05-01T10:36:33.867Z,89.45
2019-05-01T10:39:16.026Z,101.18
2019-05-01T10:41:55.281Z,119.90
2019-05-01T10:44:37.977Z,137.88
2019-05-01T10:47:22.211Z,169.07
2019-05-01T10:50:02.892Z,126.78
2019-05-01T10:52:45.151Z,129.93
2019-05-01T10:55:22.546Z,159.93
2019-05-01T10:58:06.220Z,168.43
2019-05-01T11:01:05.592Z,135.30
2019-05-01T11:03:50.864Z,131.18
2019-05-01T11:06:29.652Z,139.55
2019-05-01T11:09:11.824Z,141.30
2019-05-01T11:11:55.014Z,132.27
2019-05-01T11:14:33.584Z,143.45
2019-05-01T11:17:14.690Z,169.05
2019-05-01T11:19:53.862Z,204.63
2019-05-01T11:22:31.180Z,160.72
2019-05-01T11:25:20.911Z,153.15
2019-05-01T11:27:56.484Z,143.17
2019-05-01T11:30:33.471Z,134.57
2019-05-01T11:33:24.112Z,135.57
2019-05-01T11:36:09.299Z,152.55
2019-05-01T11:38:41.555Z,140.37
2019-05-01T11:41:29.129Z,156.95
2019-05-01T11:46:40.881Z,146.57
2019-05-01T11:49:16.856Z,141.40
2019-05-01T11:51:54.214Z,130.75
2019-05-01T11:54:31.501Z,132.63
2019-05-01T11:57:09.617Z,135.75
2019-05-01T12:02:27.496Z,135.22
2019-05-01T12:05:05.312Z,145.22
2019-05-01T12:07:43.977Z,137.47
2019-05-01T12:10:25.587Z,141.88
2019-05-01T12:13:10.097Z,154.63
2019-05-01T12:18:45.230Z,157.03
2019-05-01T12:21:23.214Z,141.57
2019-05-01T12:24:00.834Z,139.90
2019-05-01T12:26:36.533Z,136.30
2019-05-01T12:29:16.707Z,132.85
2019-05-01T12:31:57.735Z,123.50
2019-05-01T12:34:36.010Z,124.60
2019-05-01T12:37:21.013Z,129.78
2019-05-01T12:39:58.894Z,135.97
2019-05-01T12:45:16.551Z,135.80
2019-05-01T12:48:00.862Z,140.73
2019-05-01T12:50:37.779Z,133.27
2019-05-01T12:53:22.136Z,131.78
2019-05-01T12:56:04.236Z,117.40
2019-05-01T12:58:45.526Z,124.53
2019-05-01T13:01:21.864Z,108.32
2019-05-01T13:04:03.025Z,118.72
2019-05-01T13:06:49.077Z,125.35
2019-05-01T13:09:32.823Z,116.75
2019-05-01T13:12:12.341Z,111.68
2019-05-01T13:14:52.689Z,128.85
2019-05-01T13:17:29.961Z,111.42
2019-05-01T13:20:10.194Z,122.30
2019-05-01T13:22:45.113Z,118.53
2019-05-01T13:25:30.582Z,131.20
2019-05-01T13:28:25.294Z,107.37
2019-05-01T13:31:09.052Z,107.25
2019-05-01T13:33:48.447Z,112.32
2019-05-01T13:36:25.606Z,116.93
2019-05-01T13:39:09.822Z,113.60
2019-05-01T13:41:49.871Z,101.30
2019-05-01T13:44:27.109Z,99.20
2019-05-01T13:47:06.522Z,125.47
2019-05-01T13:49:58.930Z,124.72
2019-05-01T13:52:41.283Z,109.92
2019-05-01T13:55:18.247Z,104.67
2019-05-01T13:58:02.938Z,100.62
2019-05-01T14:00:41.666Z,102.67
2019-05-01T14:03:19.590Z,92.02
2019-05-01T14:05:56.779Z,81.40
2019-05-01T14:08:40.311Z,75.92
2019-05-01T14:11:16.602Z,87.55
2019-05-01T14:14:10.570Z,78.87
2019-05-01T14:16:46.408Z,80.85
2019-05-01T14:19:25.793Z,60.38
2019-05-01T14:22:04.829Z,68.17
2019-05-01T14:24:46.764Z,72.58
2019-05-01T14:27:23.421Z,75.25
2019-05-01T14:30:04.246Z,67.53
2019-05-01T14:32:39.888Z,68.20
2019-05-01T14:35:29.350Z,73.70
2019-05-01T14:38:05.550Z,68.12
2019-05-01T14:43:17.529Z,65.37
2019-05-01T14:45:58.140Z,60.08
2019-05-01T14:51:33.583Z,57.60
2019-05-01T14:54:12.850Z,57.30
2019-05-01T14:56:55.356Z,65.32
2019-05-01T14:59:36.023Z,56.13
2019-05-01T15:02:27.355Z,72.65
2019-05-01T15:05:02.423Z,66.87
2019-05-01T15:07:43.819Z,80.32
2019-05-01T15:10:37.060Z,75.67
2019-05-01T15:16:33.312Z,67.95
2019-05-01T15:19:24.329Z,58.28
2019-05-01T15:22:10.805Z,59.42
2019-05-01T15:24:49.928Z,53.85
2019-05-01T15:27:26.968Z,56.33
2019-05-01T15:30:07.102Z,49.80
2019-05-01T15:33:01.127Z,59.23
2019-05-01T15:35:39.405Z,48.95
2019-05-01T15:38:15.696Z,48.15
2019-05-01T15:44:00.854Z,86.82
2019-05-01T15:46:50.302Z,49.47
2019-05-01T15:49:27.789Z,52.03
2019-05-01T15:52:05.198Z,52.98
2019-05-01T15:54:45.140Z,48.80
2019-05-01T15:57:24.886Z,54.90
2019-05-01T16:00:08.476Z,92.00
2019-05-01T16:02:53.133Z,68.55
2019-05-01T16:05:32.262Z,85.50
2019-05-01T16:11:08.954Z,64.22
2019-05-01T16:13:48.240Z,70.95
2019-05-01T16:16:37.902Z,70.90
2019-05-01T16:19:15.540Z,64.90
2019-05-01T16:21:55.357Z,74.47
2019-05-01T16:24:32.287Z,74.30
2019-05-01T16:27:09.078Z,70.70
2019-05-01T16:29:44.679Z,64.03
2019-05-01T16:32:25.811Z,63.05
2019-05-01T16:35:05.485Z,73.95
2019-05-01T16:37:42.378Z,179.23
2019-05-01T16:40:20.341Z,61.20
2019-05-01T16:42:58.068Z,64.15
2019-05-01T16:45:37.460Z,59.85
2019-05-01T16:48:13.208Z,56.90
2019-05-01T16:50:51.497Z,69.32
2019-05-01T16:53:28.708Z,61.63
2019-05-01T16:56:07.907Z,64.45
2019-05-01T16:59:01.092Z,62.50
2019-05-01T17:01:54.434Z,65.50
2019-05-01T17:04:39.649Z,55.50
2019-05-01T17:07:26.636Z,61.58
2019-05-01T17:10:14.031Z,60.08
2019-05-01T17:15:30.279Z,52.73
2019-05-01T17:18:08.226Z,50.45
2019-05-01T17:23:21.135Z,54.20
2019-05-01T17:28:32.910Z,53.87
2019-05-01T17:31:12.295Z,55.35
2019-05-01T17:33:55.581Z,55.05
2019-05-01T17:36:29.653Z,52.88
2019-05-01T17:39:06.886Z,58.42
2019-05-01T17:41:43.290Z,61.70
2019-05-01T17:44:25.087Z,66.00
2019-05-01T17:46:57.758Z,56.73
2019-05-01T17:49:34.699Z,68.57
2019-05-01T17:54:46.200Z,67.47
2019-05-01T17:57:21.339Z,63.85
2019-05-01T17:59:59.441Z,55.10
2019-05-01T18:02:45.579Z,59.85
2019-05-01T18:05:32.738Z,66.97
2019-05-01T18:08:09.564Z,61.95
2019-05-01T18:10:45.110Z,62.35
2019-05-01T18:13:24.557Z,55.50
2019-05-01T18:16:02.261Z,58.58
2019-05-01T18:18:39.546Z,61.88
2019-05-01T18:21:16.117Z,57.15
2019-05-01T18:24:12.397Z,63.55
2019-05-01T18:26:55.238Z,63.02
2019-05-01T18:29:45.074Z,62.85
2019-05-01T18:32:25.484Z,60.38
2019-05-01T18:35:00.569Z,68.90
2019-05-01T18:37:42.527Z,64.80
2019-05-01T18:40:21.378Z,63.48
2019-05-01T18:43:01.027Z,67.72
2019-05-01T18:45:55.430Z,63.08
2019-05-01T18:48:32.235Z,59.98
2019-05-01T18:51:07.872Z,62.80
2019-05-01T18:53:45.035Z,60.98
2019-05-01T18:56:20.019Z,64.90
2019-05-01T18:58:55.482Z,60.50
2019-05-01T19:01:32.628Z,56.20
2019-05-01T19:06:45.091Z,52.13
2019-05-01T19:09:29.757Z,61.90
2019-05-01T19:11:58.350Z,70.10
2019-05-01T19:14:35.874Z,73.45
2019-05-01T19:17:11.027Z,63.63
2019-05-01T19:19:47.849Z,63.80
2019-05-01T19:22:24.803Z,65.22
2019-05-01T19:25:04.215Z,74.17
2019-05-01T19:27:41.610Z,60.73
2019-05-01T19:30:17.061Z,64.25
2019-05-01T19:32:52.226Z,59.83
2019-05-01T19:35:29.630Z,65.78
2019-05-01T19:38:05.814Z,65.22
2019-05-01T19:40:41.363Z,56.18
2019-05-01T19:43:17.778Z,67.05
2019-05-01T19:45:54.936Z,58.45
2019-05-01T19:48:31.531Z,65.50
2019-05-01T19:51:19.202Z,63.85
2019-05-01T19:53:53.466Z,55.25
2019-05-01T19:56:28.560Z,60.52
2019-05-01T19:59:04.195Z,60.30
2019-05-01T20:01:44.707Z,64.05
2019-05-01T20:04:16.676Z,69.53
2019-05-01T20:06:52.170Z,63.58
2019-05-01T20:09:27.493Z,58.65
2019-05-01T20:12:02.914Z,60.70
2019-05-01T20:14:38.065Z,60.67
2019-05-01T20:17:13.583Z,54.83
2019-05-01T20:19:49.180Z,49.48
2019-05-01T20:22:24.551Z,61.80
2019-05-01T20:24:59.700Z,56.68
2019-05-01T20:27:36.941Z,52.65
2019-05-01T20:30:13.586Z,54.05
2019-05-01T20:32:48.980Z,51.88
2019-05-01T20:35:28.288Z,52.05
2019-05-01T20:38:00.955Z,57.10
2019-05-01T20:40:36.260Z,53.23
2019-05-01T20:43:11.662Z,53.25
2019-05-01T20:45:49.471Z,47.40
2019-05-01T20:48:26.625Z,47.33
2019-05-01T20:51:02.686Z,42.43
2019-05-01T20:53:38.158Z,48.05
2019-05-01T20:56:17.171Z,46.18
2019-05-01T20:58:52.595Z,45.98
2019-05-01T21:01:29.487Z,50.65
2019-05-01T21:04:21.208Z,49.55
2019-05-01T21:07:15.520Z,49.58
2019-05-01T21:09:56.800Z,47.38
2019-05-01T21:12:28.201Z,51.23
2019-05-01T21:15:03.624Z,52.10
2019-05-01T21:17:39.743Z,57.48
2019-05-01T21:20:14.973Z,50.30
2019-05-01T21:23:04.934Z,49.08
2019-05-01T21:28:34.549Z,51.53
2019-05-01T21:31:09.968Z,48.30
2019-05-01T21:33:46.284Z,55.05
2019-05-01T21:36:21.469Z,45.83
2019-05-01T21:38:57.585Z,53.50
2019-05-01T21:41:32.999Z,51.73
2019-05-01T21:44:08.295Z,61.63
2019-05-01T21:46:43.595Z,61.30
2019-05-01T21:49:18.786Z,75.50
2019-05-01T21:51:54.137Z,55.17
2019-05-01T21:54:29.143Z,59.83
2019-05-01T21:57:04.499Z,57.20
2019-05-01T21:59:43.702Z,64.07
2019-05-01T22:02:16.106Z,63.20
2019-05-01T22:04:51.491Z,56.55
2019-05-01T22:07:27.938Z,59.25
2019-05-01T22:10:03.729Z,60.08
2019-05-01T22:12:39.125Z,56.60
2019-05-01T22:15:15.609Z,55.70
2019-05-01T22:18:01.384Z,59.45
2019-05-01T22:20:40.336Z,59.18
2019-05-01T22:23:17.116Z,54.23
2019-05-01T22:25:54.157Z,60.75
2019-05-01T22:28:31.995Z,65.85
2019-05-01T22:31:25.193Z,80.17
2019-05-01T22:34:12.026Z,65.97
2019-05-01T22:36:47.319Z,51.35
2019-05-01T22:39:28.578Z,54.35
2019-05-01T22:42:02.540Z,71.33
2019-05-01T22:44:37.579Z,59.13
2019-05-01T22:47:15.022Z,54.80
2019-05-01T22:49:49.192Z,50.65
2019-05-01T22:52:24.428Z,78.70
2019-05-01T22:55:00.077Z,38.73
2019-05-01T22:57:35.437Z,29.45
2019-05-01T23:00:11.726Z,32.40
2019-05-01T23:02:49.895Z,29.15
2019-05-01T23:05:27.848Z,29.77
2019-05-01T23:08:01.436Z,26.15
2019-05-01T23:10:36.779Z,39.45
2019-05-01T23:13:12.716Z,36.30
2019-05-01T23:15:51.544Z,36.77
2019-05-01T23:18:24.663Z,43.85
2019-05-01T23:20:59.927Z,60.38
2019-05-01T23:23:36.203Z,62.58
2019-05-01T23:26:11.662Z,54.42
2019-05-01T23:28:47.608Z,71.55
2019-05-01T23:31:23.134Z,73.17
2019-05-01T23:33:58.481Z,51.77
2019-05-01T23:36:35.021Z,38.83
2019-05-01T23:39:10.588Z,32.70
2019-05-01T23:41:47.593Z,45.95
2019-05-01T23:44:24.333Z,48.45
2019-05-01T23:46:59.594Z,57.38
2019-05-01T23:49:35.068Z,52.48
2019-05-01T23:52:10.416Z,48.92
2019-05-01T23:54:46.423Z,40.63
2019-05-01T23:57:25.386Z,49.27
